createdAt,value
2022-10-13T00:01:16.034Z,9.13
2022-10-13T00:03:47.090Z,9.21
2022-10-13T00:06:23.940Z,9.28
2022-10-13T00:08:52.138Z,9.26
2022-10-13T00:11:23.876Z,9.22
2022-10-13T00:13:52.159Z,9.17
2022-10-13T00:16:21.685Z,9.15
2022-10-13T00:18:50.358Z,9.16
2022-10-13T00:21:21.074Z,9.18
2022-10-13T00:23:51.320Z,9.21
2022-10-13T00:26:21.692Z,9.22
2022-10-13T00:28:52.542Z,9.24
2022-10-13T00:31:24.267Z,9.24
2022-10-13T00:33:52.597Z,9.24
2022-10-13T00:36:22.311Z,9.25
2022-10-13T00:38:50.994Z,9.21
2022-10-13T00:41:18.266Z,9.18
2022-10-13T00:43:58.517Z,9.20
2022-10-13T00:46:37.259Z,9.22
2022-10-13T00:49:14.309Z,9.23
2022-10-13T00:51:48.706Z,9.25
2022-10-13T00:54:25.002Z,9.21
2022-10-13T00:56:53.985Z,9.16
2022-10-13T00:59:27.054Z,9.15
2022-10-13T01:01:57.357Z,9.15
2022-10-13T01:04:28.576Z,9.13
2022-10-13T01:06:56.746Z,9.10
2022-10-13T01:09:23.801Z,9.09
2022-10-13T01:12:11.369Z,9.12
2022-10-13T01:15:09.835Z,9.08
2022-10-13T01:17:56.168Z,9.01
2022-10-13T01:20:51.639Z,8.97
2022-10-13T01:23:41.782Z,8.90
2022-10-13T01:26:27.732Z,8.83
2022-10-13T01:29:04.242Z,8.77
2022-10-13T01:31:47.945Z,8.77
2022-10-13T01:34:44.623Z,8.78
2022-10-13T01:37:26.283Z,8.83
2022-10-13T01:40:02.669Z,8.87
2022-10-13T01:42:39.756Z,8.90
2022-10-13T01:45:17.380Z,8.94
2022-10-13T01:47:47.294Z,8.95
2022-10-13T01:50:18.785Z,8.94
2022-10-13T01:52:47.856Z,8.96
2022-10-13T01:55:15.292Z,8.99
2022-10-13T01:57:45.072Z,9.02
2022-10-13T02:00:14.629Z,9.05
2022-10-13T02:03:00.729Z,9.02
2022-10-13T02:05:34.120Z,9.02
2022-10-13T02:08:25.948Z,9.02
2022-10-13T02:11:25.132Z,9.02
2022-10-13T02:14:04.469Z,9.01
2022-10-13T02:16:38.583Z,8.99
2022-10-13T02:19:09.034Z,9.00
2022-10-13T02:21:37.342Z,9.02
2022-10-13T02:24:05.891Z,9.02
2022-10-13T02:26:35.397Z,9.02
2022-10-13T02:29:16.892Z,9.03
2022-10-13T02:31:46.387Z,9.03
2022-10-13T02:34:14.463Z,9.03
2022-10-13T02:36:42.226Z,9.01
2022-10-13T02:39:11.021Z,8.98
2022-10-13T02:41:39.150Z,8.96
2022-10-13T02:44:06.545Z,8.94
2022-10-13T02:46:35.641Z,8.95
2022-10-13T02:49:03.083Z,8.94
2022-10-13T02:51:30.767Z,8.90
2022-10-13T02:53:58.429Z,8.86
2022-10-13T02:56:25.729Z,8.82
2022-10-13T02:58:53.342Z,8.81
2022-10-13T03:01:21.085Z,8.79
2022-10-13T03:03:48.816Z,8.77
2022-10-13T03:06:15.916Z,8.72
2022-10-13T03:08:43.786Z,8.69
2022-10-13T03:11:11.444Z,8.65
2022-10-13T03:13:38.683Z,8.62
2022-10-13T03:16:07.586Z,8.59
2022-10-13T03:18:35.104Z,8.58
2022-10-13T03:21:05.152Z,8.59
2022-10-13T03:23:33.135Z,8.61
2022-10-13T03:26:01.425Z,8.57
2022-10-13T03:28:28.731Z,8.51
2022-10-13T03:31:08.007Z,8.45
2022-10-13T03:33:35.758Z,8.40
2022-10-13T03:36:05.380Z,8.41
2022-10-13T03:38:35.604Z,8.39
2022-10-13T03:41:07.046Z,8.41
2022-10-13T03:43:35.309Z,8.45
2022-10-13T03:46:04.738Z,8.40
2022-10-13T03:48:34.443Z,8.27
2022-10-13T03:51:07.229Z,8.18
2022-10-13T03:53:34.889Z,8.11
2022-10-13T03:56:03.577Z,8.12
2022-10-13T03:58:34.926Z,8.15
2022-10-13T04:01:05.482Z,8.17
2022-10-13T04:03:34.459Z,8.21
2022-10-13T04:06:03.627Z,8.29
2022-10-13T04:08:32.740Z,8.33
2022-10-13T04:11:05.751Z,8.33
2022-10-13T04:13:34.193Z,8.31
2022-10-13T04:16:23.900Z,8.24
2022-10-13T04:18:56.345Z,8.16
2022-10-13T04:21:25.257Z,8.11
2022-10-13T04:23:57.422Z,8.15
2022-10-13T04:26:27.138Z,8.20
2022-10-13T04:28:55.470Z,8.22
2022-10-13T04:31:23.394Z,8.25
2022-10-13T04:33:51.573Z,8.34
2022-10-13T04:36:19.428Z,8.36
2022-10-13T04:38:47.276Z,8.31
2022-10-13T04:41:16.343Z,8.29
2022-10-13T04:43:46.730Z,8.27
2022-10-13T04:46:20.039Z,8.24
2022-10-13T04:48:50.007Z,8.28
2022-10-13T04:51:20.636Z,8.35
2022-10-13T04:53:48.107Z,8.41
2022-10-13T04:56:17.907Z,8.44
2022-10-13T04:58:46.342Z,8.47
2022-10-13T05:01:21.362Z,8.49
2022-10-13T05:03:54.027Z,8.49
2022-10-13T05:06:27.534Z,8.47
2022-10-13T05:08:58.257Z,8.46
2022-10-13T05:11:27.877Z,8.48
2022-10-13T05:13:56.352Z,8.49
2022-10-13T05:16:25.339Z,8.47
2022-10-13T05:18:54.631Z,8.45
2022-10-13T05:21:28.249Z,8.48
2022-10-13T05:23:57.857Z,8.50
2022-10-13T05:26:28.593Z,8.50
2022-10-13T05:28:57.079Z,8.50
2022-10-13T05:31:27.191Z,8.51
2022-10-13T05:33:55.562Z,8.50
2022-10-13T05:36:41.389Z,8.52
2022-10-13T05:39:10.066Z,8.61
2022-10-13T05:41:38.949Z,8.66
2022-10-13T05:44:09.091Z,8.68
2022-10-13T05:46:40.789Z,8.70
2022-10-13T05:49:08.259Z,8.71
2022-10-13T05:51:38.844Z,8.86
2022-10-13T05:54:41.872Z,9.17
2022-10-13T05:57:15.496Z,9.43
2022-10-13T05:59:49.240Z,9.45
2022-10-13T06:02:19.053Z,9.51
2022-10-13T06:04:50.382Z,9.65
2022-10-13T06:07:17.900Z,10.29
2022-10-13T06:09:45.768Z,11.36
2022-10-13T06:12:13.330Z,12.34
2022-10-13T06:14:42.451Z,13.23
2022-10-13T06:17:12.705Z,14.08
2022-10-13T06:19:45.037Z,14.88
2022-10-13T06:22:12.410Z,15.54
2022-10-13T06:24:39.825Z,16.17
2022-10-13T06:27:10.794Z,16.77
2022-10-13T06:29:38.259Z,17.31
2022-10-13T06:32:06.336Z,17.75
2022-10-13T06:34:35.242Z,18.18
2022-10-13T06:37:02.673Z,18.54
2022-10-13T06:39:30.237Z,18.85
2022-10-13T06:42:00.894Z,19.08
2022-10-13T06:44:32.249Z,19.30
2022-10-13T06:47:05.088Z,19.49
2022-10-13T06:49:33.165Z,19.48
2022-10-13T06:52:00.332Z,19.36
2022-10-13T06:54:27.735Z,19.26
2022-10-13T06:56:55.210Z,19.12
2022-10-13T06:59:24.748Z,19.02
2022-10-13T07:01:53.163Z,19.07
2022-10-13T07:04:22.849Z,19.24
2022-10-13T07:06:51.339Z,19.53
2022-10-13T07:09:19.773Z,19.98
2022-10-13T07:11:47.691Z,20.42
2022-10-13T07:14:15.361Z,20.75
2022-10-13T07:16:43.115Z,21.05
2022-10-13T07:19:10.268Z,21.21
2022-10-13T07:21:39.345Z,21.41
2022-10-13T07:24:07.513Z,21.63
2022-10-13T07:26:35.099Z,21.67
2022-10-13T07:29:02.823Z,21.61
2022-10-13T07:31:30.680Z,21.58
2022-10-13T07:34:00.035Z,21.71
2022-10-13T07:36:28.578Z,21.98
2022-10-13T07:38:56.347Z,22.13
2022-10-13T07:41:24.307Z,22.27
2022-10-13T07:43:57.897Z,22.37
2022-10-13T07:46:26.030Z,22.23
2022-10-13T07:48:53.632Z,22.16
2022-10-13T07:51:22.021Z,22.13
2022-10-13T07:54:00.571Z,22.02
2022-10-13T07:56:36.024Z,21.91
2022-10-13T07:59:22.244Z,21.89
2022-10-13T08:01:52.477Z,22.00
2022-10-13T08:04:20.387Z,22.09
2022-10-13T08:06:56.589Z,22.10
2022-10-13T08:09:56.513Z,22.02
2022-10-13T08:12:41.661Z,21.99
2022-10-13T08:15:17.053Z,21.96
2022-10-13T08:17:44.355Z,21.81
2022-10-13T08:20:11.890Z,21.67
2022-10-13T08:22:39.059Z,21.57
2022-10-13T08:25:07.126Z,21.44
2022-10-13T08:27:50.674Z,21.38
2022-10-13T08:30:22.330Z,21.46
2022-10-13T08:32:52.181Z,21.45
2022-10-13T08:35:19.303Z,21.31
2022-10-13T08:37:52.517Z,21.38
2022-10-13T08:40:22.711Z,21.37
2022-10-13T08:42:51.086Z,21.36
2022-10-13T08:45:43.561Z,21.35
2022-10-13T08:48:50.406Z,21.24
2022-10-13T08:51:18.428Z,21.15
2022-10-13T08:53:46.791Z,21.00
2022-10-13T08:56:18.033Z,20.97
2022-10-13T08:58:49.885Z,21.06
2022-10-13T09:01:23.841Z,21.11
2022-10-13T09:04:13.160Z,21.05
2022-10-13T09:06:45.830Z,21.03
2022-10-13T09:09:16.674Z,21.02
2022-10-13T09:11:48.421Z,21.05
2022-10-13T09:14:32.864Z,21.11
2022-10-13T09:17:23.926Z,21.10
2022-10-13T09:20:05.113Z,21.08
2022-10-13T09:22:35.916Z,21.14
2022-10-13T09:25:06.447Z,21.04
2022-10-13T09:31:36.158Z,21.05
2022-10-13T09:34:19.065Z,21.03
2022-10-13T09:36:56.904Z,20.92
2022-10-13T09:39:24.967Z,20.71
2022-10-13T09:42:08.464Z,20.58
2022-10-13T09:44:35.776Z,20.50
2022-10-13T09:47:04.005Z,20.40
2022-10-13T09:49:41.118Z,20.21
2022-10-13T09:52:14.317Z,20.04
2022-10-13T09:54:58.561Z,19.89
2022-10-13T09:57:45.600Z,19.73
2022-10-13T10:00:19.692Z,19.55
2022-10-13T10:03:02.773Z,19.39
2022-10-13T10:05:51.008Z,19.24
2022-10-13T10:08:28.915Z,19.14
2022-10-13T10:11:05.549Z,19.01
2022-10-13T10:13:32.781Z,18.86
2022-10-13T10:16:38.672Z,18.76
2022-10-13T10:19:25.893Z,18.66
2022-10-13T10:22:19.202Z,18.53
2022-10-13T10:24:54.370Z,18.44
2022-10-13T10:27:30.131Z,18.39
2022-10-13T10:30:05.838Z,18.36
2022-10-13T10:32:55.001Z,18.31
2022-10-13T10:35:48.737Z,18.30
2022-10-13T10:38:24.966Z,18.27
2022-10-13T10:41:22.137Z,18.24
2022-10-13T10:44:12.971Z,18.17
2022-10-13T10:46:48.604Z,18.10
2022-10-13T10:49:29.632Z,18.07
2022-10-13T10:51:59.931Z,18.03
2022-10-13T10:54:52.497Z,18.03
2022-10-13T10:57:24.845Z,18.07
2022-10-13T11:00:23.761Z,18.11
2022-10-13T11:03:26.629Z,18.11
2022-10-13T11:06:23.910Z,18.11
2022-10-13T11:08:56.043Z,18.10
2022-10-13T11:11:37.431Z,18.07
2022-10-13T11:14:15.883Z,18.07
2022-10-13T11:17:06.565Z,18.09
2022-10-13T11:19:36.950Z,18.03
2022-10-13T11:22:05.417Z,17.95
2022-10-13T11:24:35.054Z,17.92
2022-10-13T11:27:15.848Z,17.96
2022-10-13T11:29:44.690Z,17.98
2022-10-13T11:32:27.398Z,17.99
2022-10-13T11:35:14.788Z,18.03
2022-10-13T11:38:07.406Z,18.08
2022-10-13T11:41:00.670Z,18.11
2022-10-13T11:44:04.584Z,18.14
2022-10-13T11:46:59.825Z,18.20
2022-10-13T11:49:57.735Z,18.25
2022-10-13T11:52:29.143Z,18.32
2022-10-13T11:55:12.300Z,18.33
2022-10-13T11:57:42.837Z,18.33
2022-10-13T12:00:16.124Z,18.36
2022-10-13T12:02:50.545Z,18.39
2022-10-13T12:05:22.221Z,18.39
2022-10-13T12:07:52.043Z,18.37
2022-10-13T12:10:30.745Z,18.36
2022-10-13T12:12:59.008Z,18.36
2022-10-13T12:15:35.799Z,18.33
2022-10-13T12:18:23.886Z,18.31
2022-10-13T12:20:56.644Z,18.28
2022-10-13T12:23:28.145Z,18.28
2022-10-13T12:25:59.625Z,18.31
2022-10-13T12:28:44.742Z,18.34
2022-10-13T12:31:24.645Z,18.33
2022-10-13T12:34:02.526Z,18.31
2022-10-13T12:36:35.116Z,18.31
2022-10-13T12:39:11.720Z,18.28
2022-10-13T12:41:44.611Z,18.22
2022-10-13T12:44:21.239Z,18.17
2022-10-13T12:46:55.259Z,18.15
2022-10-13T12:49:25.601Z,18.17
2022-10-13T12:52:05.172Z,18.17
2022-10-13T12:54:37.439Z,18.15
2022-10-13T12:57:34.724Z,18.14
2022-10-13T13:00:06.270Z,18.13
2022-10-13T13:02:33.794Z,18.11
2022-10-13T13:05:02.266Z,18.09
2022-10-13T13:07:37.024Z,18.05
2022-10-13T13:10:07.063Z,18.03
2022-10-13T13:12:35.493Z,18.02
2022-10-13T13:15:32.844Z,18.00
2022-10-13T13:18:28.191Z,17.99
2022-10-13T13:20:56.115Z,17.98
2022-10-13T13:23:24.337Z,17.96
2022-10-13T13:26:05.888Z,17.95
2022-10-13T13:28:33.501Z,17.95
2022-10-13T13:31:03.997Z,17.92
2022-10-13T13:33:34.707Z,17.90
2022-10-13T13:36:02.413Z,17.89
2022-10-13T13:38:29.723Z,17.87
2022-10-13T13:41:00.120Z,17.86
2022-10-13T13:43:31.344Z,17.87
2022-10-13T13:45:58.771Z,17.87
2022-10-13T13:48:26.416Z,17.87
2022-10-13T13:50:53.915Z,17.87
2022-10-13T13:53:21.641Z,17.88
2022-10-13T13:55:51.917Z,17.88
2022-10-13T13:58:20.411Z,17.85
2022-10-13T14:00:57.648Z,17.83
2022-10-13T14:03:27.452Z,17.81
2022-10-13T14:05:54.862Z,17.81
2022-10-13T14:08:25.594Z,17.84
2022-10-13T14:10:53.730Z,17.85
2022-10-13T14:13:21.177Z,17.85
2022-10-13T14:16:02.382Z,17.83
2022-10-13T14:18:31.453Z,17.79
2022-10-13T14:20:59.758Z,17.75
2022-10-13T14:23:27.015Z,17.71
2022-10-13T14:25:54.623Z,17.65
2022-10-13T14:28:23.060Z,17.60
2022-10-13T14:30:50.561Z,17.55
2022-10-13T14:33:19.491Z,17.52
2022-10-13T14:35:46.672Z,17.50
2022-10-13T14:38:16.362Z,17.47
2022-10-13T14:40:45.114Z,17.44
2022-10-13T14:43:12.310Z,17.39
2022-10-13T14:45:39.880Z,17.33
2022-10-13T14:48:11.535Z,17.29
2022-10-13T14:50:39.072Z,17.26
2022-10-13T14:53:09.281Z,17.24
2022-10-13T14:55:36.626Z,17.21
2022-10-13T14:58:03.757Z,17.18
2022-10-13T15:00:31.352Z,17.16
2022-10-13T15:02:58.724Z,17.13
2022-10-13T15:05:26.145Z,17.10
2022-10-13T15:07:53.511Z,17.06
2022-10-13T15:10:20.774Z,17.03
2022-10-13T15:12:48.280Z,16.97
2022-10-13T15:15:15.980Z,16.92
2022-10-13T15:17:43.302Z,16.87
2022-10-13T15:20:10.618Z,16.80
2022-10-13T15:22:37.997Z,16.75
2022-10-13T15:25:11.510Z,16.68
2022-10-13T15:27:41.828Z,16.61
2022-10-13T15:30:09.873Z,16.55
2022-10-13T15:32:37.309Z,16.51
2022-10-13T15:35:05.950Z,16.47
2022-10-13T15:37:34.585Z,16.43
2022-10-13T15:40:01.737Z,16.38
2022-10-13T15:42:29.522Z,16.32
2022-10-13T15:45:09.183Z,16.25
2022-10-13T15:47:37.885Z,16.18
2022-10-13T15:50:05.288Z,16.10
2022-10-13T15:52:37.368Z,16.03
2022-10-13T15:55:06.119Z,15.96
2022-10-13T15:57:33.425Z,15.89
2022-10-13T16:00:00.662Z,15.82
2022-10-13T16:02:36.010Z,15.76
2022-10-13T16:05:05.052Z,15.69
2022-10-13T16:07:33.109Z,15.61
2022-10-13T16:10:01.648Z,15.54
2022-10-13T16:12:29.194Z,15.48
2022-10-13T16:14:56.944Z,15.44
2022-10-13T16:17:24.441Z,15.39
2022-10-13T16:19:51.660Z,15.33
2022-10-13T16:22:19.479Z,15.28
2022-10-13T16:24:47.266Z,15.22
2022-10-13T16:27:14.676Z,15.14
2022-10-13T16:29:41.822Z,15.07
2022-10-13T16:32:08.963Z,15.01
2022-10-13T16:34:36.277Z,14.97
2022-10-13T16:37:03.990Z,14.94
2022-10-13T16:39:31.344Z,14.90
2022-10-13T16:41:58.625Z,14.83
2022-10-13T16:44:26.532Z,14.81
2022-10-13T16:46:56.582Z,14.79
2022-10-13T16:49:23.806Z,14.75
2022-10-13T16:51:51.063Z,14.68
2022-10-13T16:54:18.461Z,14.62
2022-10-13T16:56:46.594Z,14.58
2022-10-13T16:59:14.863Z,14.58
2022-10-13T17:01:42.465Z,14.59
2022-10-13T17:04:09.667Z,14.60
2022-10-13T17:06:39.208Z,14.60
2022-10-13T17:09:06.984Z,14.61
2022-10-13T17:11:35.315Z,14.59
2022-10-13T17:14:05.317Z,14.55
2022-10-13T17:16:33.382Z,14.50
2022-10-13T17:19:00.935Z,14.43
2022-10-13T17:21:34.202Z,14.34
2022-10-13T17:24:01.572Z,14.25
2022-10-13T17:26:28.651Z,14.18
2022-10-13T17:28:56.681Z,14.14
2022-10-13T17:31:24.542Z,14.08
2022-10-13T17:33:52.906Z,14.00
2022-10-13T17:36:29.090Z,13.94
2022-10-13T17:39:01.179Z,13.88
2022-10-13T17:41:29.522Z,13.81
2022-10-13T17:43:56.706Z,13.74
2022-10-13T17:46:42.332Z,13.68
2022-10-13T17:49:11.707Z,13.64
2022-10-13T17:51:40.713Z,13.64
2022-10-13T17:54:15.259Z,13.66
2022-10-13T17:56:45.538Z,13.66
2022-10-13T17:59:14.181Z,13.69
2022-10-13T18:01:42.505Z,13.69
2022-10-13T18:04:19.806Z,13.71
2022-10-13T18:06:47.147Z,13.76
2022-10-13T18:09:17.905Z,13.81
2022-10-13T18:11:50.572Z,13.89
2022-10-13T18:14:24.332Z,13.92
2022-10-13T18:16:52.417Z,13.94
2022-10-13T18:19:20.839Z,13.96
2022-10-13T18:21:48.601Z,13.97
2022-10-13T18:24:16.197Z,13.99
2022-10-13T18:26:43.320Z,14.01
2022-10-13T18:29:12.110Z,14.06
2022-10-13T18:31:41.058Z,14.15
2022-10-13T18:34:13.327Z,14.23
2022-10-13T18:36:50.340Z,14.29
2022-10-13T18:39:20.386Z,14.35
2022-10-13T18:41:49.621Z,14.41
2022-10-13T18:44:18.376Z,14.42
2022-10-13T18:46:49.313Z,14.43
2022-10-13T18:49:22.997Z,14.45
2022-10-13T18:51:51.506Z,14.46
2022-10-13T18:54:19.288Z,14.47
2022-10-13T18:56:46.624Z,14.47
2022-10-13T18:59:14.101Z,14.48
2022-10-13T19:01:43.935Z,14.50
2022-10-13T19:04:16.977Z,14.53
2022-10-13T19:06:44.714Z,14.55
2022-10-13T19:09:14.396Z,14.58
2022-10-13T19:11:42.293Z,14.56
2022-10-13T19:14:12.813Z,14.55
2022-10-13T19:16:42.344Z,14.51
2022-10-13T19:19:10.640Z,14.46
2022-10-13T19:21:39.160Z,14.37
2022-10-13T19:24:07.426Z,14.29
2022-10-13T19:26:35.922Z,14.22
2022-10-13T19:29:12.510Z,14.17
2022-10-13T19:31:41.172Z,14.12
2022-10-13T19:34:10.674Z,14.10
2022-10-13T19:36:41.197Z,14.06
2022-10-13T19:39:29.310Z,13.94
2022-10-13T19:41:57.543Z,13.79
2022-10-13T19:44:25.549Z,13.69
2022-10-13T19:46:53.892Z,13.61
2022-10-13T19:49:24.869Z,13.57
2022-10-13T19:51:54.002Z,13.59
2022-10-13T19:54:22.798Z,13.62
2022-10-13T19:56:50.716Z,13.64
2022-10-13T19:59:18.496Z,13.66
2022-10-13T20:01:46.144Z,13.68
2022-10-13T20:04:15.720Z,13.67
2022-10-13T20:06:44.443Z,13.67
2022-10-13T20:09:12.413Z,13.67
2022-10-13T20:11:39.808Z,13.65
2022-10-13T20:14:07.371Z,13.64
2022-10-13T20:16:37.726Z,13.66
2022-10-13T20:19:04.975Z,13.68
2022-10-13T20:21:32.792Z,13.68
2022-10-13T20:24:00.864Z,13.66
2022-10-13T20:26:28.840Z,13.63
2022-10-13T20:28:57.737Z,13.60
2022-10-13T20:31:26.819Z,13.55
2022-10-13T20:33:56.303Z,13.49
2022-10-13T20:36:27.123Z,13.46
2022-10-13T20:38:55.037Z,13.46
2022-10-13T20:41:28.137Z,13.49
2022-10-13T20:43:57.878Z,13.50
2022-10-13T20:46:26.050Z,13.52
2022-10-13T20:49:11.584Z,13.53
2022-10-13T20:51:42.610Z,13.56
2022-10-13T20:54:12.825Z,13.57
2022-10-13T20:56:40.574Z,13.57
2022-10-13T20:59:10.635Z,13.56
2022-10-13T21:01:38.569Z,13.56
2022-10-13T21:04:06.644Z,13.56
2022-10-13T21:06:35.355Z,13.53
2022-10-13T21:09:05.669Z,13.51
2022-10-13T21:11:35.033Z,13.50
2022-10-13T21:14:06.786Z,13.52
2022-10-13T21:16:37.366Z,13.55
2022-10-13T21:19:10.531Z,13.56
2022-10-13T21:21:38.743Z,13.57
2022-10-13T21:24:07.452Z,13.55
2022-10-13T21:26:36.361Z,13.53
2022-10-13T21:29:04.963Z,13.50
2022-10-13T21:31:35.217Z,13.47
2022-10-13T21:34:03.887Z,13.45
2022-10-13T21:36:33.224Z,13.43
2022-10-13T21:39:04.075Z,13.36
2022-10-13T21:41:34.680Z,13.26
2022-10-13T21:44:02.779Z,13.19
2022-10-13T21:46:33.684Z,13.16
2022-10-13T21:49:04.744Z,13.13
2022-10-13T21:51:37.377Z,13.15
2022-10-13T21:54:09.814Z,13.19
2022-10-13T21:56:39.067Z,13.25
2022-10-13T21:59:07.087Z,13.27
2022-10-13T22:01:34.879Z,13.28
2022-10-13T22:04:02.748Z,13.26
2022-10-13T22:06:31.753Z,13.20
2022-10-13T22:09:01.896Z,13.17
2022-10-13T22:11:30.585Z,13.16
2022-10-13T22:13:59.047Z,13.17
2022-10-13T22:16:33.984Z,13.19
2022-10-13T22:19:01.551Z,13.23
2022-10-13T22:21:31.983Z,13.29
2022-10-13T22:24:00.555Z,13.32
2022-10-13T22:26:30.531Z,13.31
2022-10-13T22:28:59.806Z,13.30
2022-10-13T22:31:28.475Z,13.29
2022-10-13T22:33:55.816Z,13.29
2022-10-13T22:36:24.877Z,13.27
2022-10-13T22:38:54.720Z,13.28
2022-10-13T22:41:21.955Z,13.29
2022-10-13T22:43:54.762Z,13.30
2022-10-13T22:46:29.097Z,13.30
2022-10-13T22:48:57.091Z,13.28
2022-10-13T22:51:26.122Z,13.27
2022-10-13T22:53:54.029Z,13.26
2022-10-13T22:56:23.914Z,13.28
2022-10-13T22:59:05.106Z,13.31
2022-10-13T23:01:33.737Z,13.32
2022-10-13T23:04:01.092Z,13.34
2022-10-13T23:06:30.730Z,13.35
2022-10-13T23:09:06.567Z,13.38
2022-10-13T23:11:35.549Z,13.40
2022-10-13T23:14:06.553Z,13.44
2022-10-13T23:16:35.188Z,13.49
2022-10-13T23:19:04.163Z,13.53
2022-10-13T23:21:32.355Z,13.54
2022-10-13T23:24:02.881Z,13.53
2022-10-13T23:26:31.982Z,13.51
2022-10-13T23:29:00.857Z,13.50
2022-10-13T23:31:28.313Z,13.48
2022-10-13T23:33:56.827Z,13.47
2022-10-13T23:36:27.026Z,13.44
2022-10-13T23:38:59.274Z,13.43
2022-10-13T23:41:28.296Z,13.42
2022-10-13T23:43:55.644Z,13.39
2022-10-13T23:46:23.833Z,13.40
2022-10-13T23:48:52.231Z,13.42
2022-10-13T23:51:22.810Z,13.42
2022-10-13T23:53:51.178Z,13.43
2022-10-13T23:56:18.986Z,13.45
2022-10-13T23:58:47.119Z,13.48
